• Join FlightAware (Why Join?)
  • Login
  • US Flag 
04:49PM EST


 

Airport Tracker/Info


-or-


 

Live Flight TrackerFlight Track Log ✈ N156G ✈ 13-Jun-2013 ✈ KCDC - KDVT

Flight Track Log - Related Links

Times and Time Zones

All times are in EDT time to prevent confusion due to time zone crossing. See the N156G flight status page for this flight to view local times or setup timezone preferences in your user account.

Time Position Orientation Groundspeed Altitude Reporting Facility
EDT Latitude Longitude Course Direction KTS MPH feet Rate Location/Type
12:30PM 37.7658 -112.9128 91° East 163 188 12,300  Level Salt Lake Center
12:31PM 37.7572 -112.8367 98° East 174 200 13,400 840 Climbing Salt Lake Center
12:32PM 37.7494 -112.7753 99° East 176 203 14,100 660 Climbing Salt Lake Center
12:33PM 37.7411 -112.7133 100° East 177 204 14,800 780 Climbing Salt Lake Center
12:34PM 37.7331 -112.6494 99° East 180 207 15,800 960 Climbing Salt Lake Center
12:35PM 37.7009 -113.0930 91° East  Level FlightAware Approximate
12:35PM 37.7233 -112.5853 101° East 183 211 16,900  Level Salt Lake Center
12:36PM 37.7147 -112.5192 99° East 187 215 16,900  Level Salt Lake Center
12:37PM 37.7094 -112.4500 95° East 194 223 16,900  Level Salt Lake Center
12:38PM 37.7044 -112.3711 95° East 191 220 16,900 -60 Level Salt Lake Center
12:39PM 37.6869 -112.3183 113° Southeast 179 206 16,800 -60 Descending Salt Lake Center
12:40PM 37.6519 -112.2950 152° Southeast 151 174 16,800  Level Salt Lake Center
12:41PM 37.6133 -112.2836 167° South 145 167 16,800  Level Salt Lake Center
12:42PM 37.5731 -112.2847 181° South 144 166 16,800  Level Salt Lake Center
12:43PM 37.5361 -112.2892 185° South 139 160 16,900  Climbing Salt Lake Center
12:44PM 37.4894 -112.2908 182° South 138 159 16,900 -60 Level Salt Lake Center
12:45PM 37.4483 -112.2853 174° South 142 163 16,800 -60 Descending Salt Lake Center
12:46PM 37.4103 -112.2772 170° South 142 163 16,800  Level Salt Lake Center
12:47PM 37.3750 -112.2725 174° South 136 157 16,900 120 Climbing Salt Lake Center
12:48PM 37.3528 -112.2725 180° South 128 147 17,000 60 Climbing Los Angeles Center
12:49PM 37.3153 -112.2714 179° South 133 153 17,000  Level Los Angeles Center
12:50PM 37.2733 -112.2692 178° South 147 169 17,000  Level Los Angeles Center
12:51PM 37.2333 -112.2633 173° South 146 168 17,000  Level Los Angeles Center
12:52PM 37.1869 -112.2572 174° South 140 161 17,000  Level Los Angeles Center
12:53PM 37.1483 -112.2547 177° South 139 160 17,000  Level Los Angeles Center
12:54PM 37.1064 -112.2531 178° South 146 168 17,000  Level Los Angeles Center
12:55PM 37.0628 -112.2481 175° South 154 177 17,000  Level Los Angeles Center
12:56PM 37.0200 -112.2433 175° South 155 178 17,000  Level Los Angeles Center
12:57PM 36.9803 -112.2378 174° South 149 171 17,000  Level Los Angeles Center
12:58PM 36.9325 -112.2342 177° South 143 165 17,000  Level Los Angeles Center
12:59PM 36.8931 -112.2322 178° South 142 163 17,000  Level Los Angeles Center
01:00PM 36.8525 -112.2283 176° South 145 167 17,000  Level Los Angeles Center
01:01PM 36.8100 -112.2256 177° South 151 174 17,000  Level Los Angeles Center
01:03PM 36.7700 -112.2200 174° South 147 169 17,000  Level Los Angeles Center
01:04PM 36.7392 -112.2164 175° South 140 161 17,000  Level Los Angeles Center
01:05PM 36.6881 -112.2111 175° South 130 150 17,000  Level Los Angeles Center
01:06PM 36.6525 -112.2089 177° South 127 146 17,000  Level Los Angeles Center
01:07PM 36.6147 -112.2064 177° South 133 153 17,000  Level Los Angeles Center
01:08PM 36.5756 -112.2028 176° South 139 160 17,000  Level Los Angeles Center
01:09PM 36.5364 -112.1992 176° South 141 162 17,000  Level Los Angeles Center
01:10PM 36.4986 -112.1961 176° South 137 158 17,000  Level Los Angeles Center
01:11PM 36.4472 -112.1908 175° South 131 151 17,100  Climbing Los Angeles Center
01:12PM 36.4142 -112.1856 173° South 122 140 17,100  Level Los Angeles Center
01:13PM 36.3686 -112.1975 192° South 134 154 17,100  Level Los Angeles Center
01:14PM 36.3319 -112.2047 189° South 135 155 17,100  Level Los Angeles Center
01:15PM 36.2950 -112.2075 183° South 133 153 17,100  Level Los Angeles Center
01:16PM 36.2522 -112.2153 188° South 131 151 17,100  Level Los Angeles Center
01:17PM 36.2133 -112.2219 188° South 135 155 17,100  Level Los Angeles Center
01:18PM 36.1686 -112.2344 193° South 151 174 17,100  Level Los Angeles Center
01:19PM 36.1247 -112.2394 185° South 158 182 17,100  Level Los Angeles Center
01:21PM 36.0847 -112.2444 186° South 154 177 17,100  Level Los Angeles Center
01:22PM 36.0475 -112.2522 190° South 142 163 17,100  Level Los Angeles Center
01:23PM 36.0017 -112.2606 188° South 142 163 17,100  Level Los Angeles Center
01:24PM 35.9658 -112.2656 186° South 132 152 17,100  Level Los Angeles Center
01:25PM 35.9311 -112.2747 192° South 129 148 17,100  Level Los Angeles Center
01:26PM 35.8914 -112.2803 186° South 141 162 17,100  Level Los Angeles Center
01:27PM 35.8519 -112.2856 186° South 144 166 17,100  Level Los Angeles Center
01:28PM 35.8067 -112.2936 188° South 139 160 17,100  Level Los Angeles Center
01:29PM 35.7689 -112.3017 190° South 138 159 17,100  Level Los Angeles Center
01:30PM 35.7322 -112.3078 188° South 135 155 17,100  Level Los Angeles Center
01:31PM 35.6931 -112.3150 189° South 139 160 17,100 -60 Level Los Angeles Center
01:32PM 35.6461 -112.3214 186° South 167 192 17,000 -60 Descending Los Angeles Center
01:33PM 35.6039 -112.3292 189° South 157 181 17,000  Level Los Angeles Center
01:34PM 35.5583 -112.3358 187° South 140 161 17,000  Level Los Angeles Center
01:35PM 35.5200 -112.3400 185° South 140 161 17,000  Level Los Angeles Center
01:36PM 35.4856 -112.3239 159° South 134 154 17,000  Level Los Angeles Center
01:37PM 35.4508 -112.3147 168° South 128 147 17,000  Level Los Angeles Center
01:38PM 35.4150 -112.3056 168° South 131 151 17,000  Level Los Angeles Center
01:39PM 35.3694 -112.2914 166° South 141 162 17,000  Level Los Angeles Center
01:40PM 35.3331 -112.2789 164° South 138 159 17,000  Level Los Angeles Center
01:41PM 35.2997 -112.2686 166° South 127 146 17,000  Level Los Angeles Center
01:42PM 35.2647 -112.2583 167° South 127 146 17,000  Level Albuquerque Center
01:42PM 35.2647 -112.2583 167° South 129 148 17,000  Level Los Angeles Center
01:43PM 35.2311 -112.2481 166° South 126 145 17,000  Level Albuquerque Center
01:44PM 35.1947 -112.2361 165° South 133 153 17,000  Level Albuquerque Center
01:45PM 35.1586 -112.2253 166° South 135 155 17,000 -420 Level Albuquerque Center
01:46PM 35.1164 -112.2094 163° South 132 152 16,200 -780 Descending Albuquerque Center
01:47PM 35.0753 -112.1964 165° South 141 162 15,400 -540 Descending Albuquerque Center
01:48PM 35.0364 -112.1850 167° South 144 166 15,100 -60 Descending Albuquerque Center
01:49PM 34.9978 -112.1725 165° South 144 166 15,300 60 Climbing Albuquerque Center
01:50PM 34.9603 -112.1606 165° South 143 165 15,300  Level Albuquerque Center
01:52PM 34.9231 -112.1492 166° South 140 161 15,300  Level Albuquerque Center
01:53PM 34.8803 -112.1372 167° South 135 155 15,300  Level Albuquerque Center
01:54PM 34.8453 -112.1267 166° South 130 150 15,300  Level Albuquerque Center
01:55PM 34.8103 -112.1158 166° South 130 150 15,300 -60 Level Albuquerque Center
01:56PM 34.7761 -112.1044 165° South 127 146 15,200 -60 Descending Albuquerque Center
01:57PM 34.7406 -112.0933 166° South 127 146 15,200  Level Albuquerque Center
01:58PM 34.7056 -112.0828 166° South 128 147 15,200  Level Albuquerque Center
01:59PM 34.6594 -112.0683 166° South 139 160 15,200  Level Albuquerque Center
02:00PM 34.6228 -112.0556 164° South 137 158 15,200  Level Albuquerque Center
02:01PM 34.5925 -112.0464 166° South 115 132 15,200  Level Albuquerque Center
02:02PM 34.5589 -112.0364 166° South 119 137 15,200 60 Level Albuquerque Center
02:03PM 34.5256 -112.0253 165° South 123 142 15,400 60 Climbing Albuquerque Center
02:04PM 34.4894 -112.0150 167° South 129 148 15,400 -540 Level Albuquerque Center
02:05PM 34.4453 -112.0000 164° South 136 157 14,300 -1,020 Descending Albuquerque Center
02:06PM 34.4078 -111.9875 165° South 139 160 13,300 -900 Descending Albuquerque Center
02:07PM 34.3725 -111.9769 166° South 131 151 12,500 -780 Descending Albuquerque Center
02:08PM 34.3378 -111.9661 166° South 130 150 11,800 -780 Descending Albuquerque Center
02:09PM 34.3069 -111.9564 165° South 117 135 11,000 -360 Descending Albuquerque Center
02:10PM 34.2661 -111.9439 166° South 123 142 11,100  Climbing Albuquerque Center
02:11PM 34.2319 -111.9333 166° South 126 145 11,100 -60 Level Albuquerque Center
02:12PM 34.1956 -111.9217 165° South 135 155 11,000 -60 Descending Albuquerque Center
02:13PM 34.1592 -111.9236 183° South 132 152 11,000 -240 Level Albuquerque Center
02:14PM 34.1256 -111.9261 184° South 124 143 10,600 -720 Descending Albuquerque Center
02:15PM 34.0914 -111.9272 182° South 124 143 9,600 -1,080 Descending Albuquerque Center
02:16PM 34.0500 -111.9303 184° South 124 143 8,400 -780 Descending Albuquerque Center
02:17PM 34.0156 -111.9294 179° South 123 142 8,100 -180 Descending Albuquerque Center
02:18PM 33.9808 -111.9411 196° South 132 152 8,100 -60 Level Albuquerque Center
02:19PM 33.9475 -111.9569 202° Southwest 130 150 8,000 -420 Descending Albuquerque Center
02:20PM 33.9169 -111.9744 205° Southwest 124 143 7,300 -720 Descending Albuquerque Center
02:21PM 33.8786 -112.0031 212° Southwest 132 152 6,600 -600 Descending Albuquerque Center
02:23PM 33.8481 -112.0264 212° Southwest 131 151 6,100 -540 Descending Albuquerque Center
02:24PM 33.8192 -112.0486 213° Southwest 124 143 5,600 -540 Descending Albuquerque Center
02:25PM 33.7903 -112.0647 205° Southwest 117 135 5,100 -720 Descending Albuquerque Center
02:26PM 33.7586 -112.0761 197° South 119 137 4,200 -780 Descending Albuquerque Center
02:27PM 33.7247 -112.0803 186° South 122 140 3,600 -420 Descending Albuquerque Center
02:28PM 33.6839 -112.0814 181° South 125 144 3,400 -300 Descending Albuquerque Center
02:29PM 33.6697 -112.0483 117° Southeast 143 165 3,000 -600 Descending Albuquerque Center
02:30PM 33.6903 -112.0411 16° North 168 193 2,200 -420 Descending Albuquerque Center
02:31PM 33.6811 -112.0742 252° West 155 178 2,200  Level Albuquerque Center
02:33PM 33.6833 -112.0667 337° Northwest  Level FlightAware Approximate